createdAt,value
2022-07-28T00:00:09.861Z,18.10
2022-07-28T00:02:36.915Z,21.67
2022-07-28T00:05:05.028Z,18.98
2022-07-28T00:07:32.417Z,18.80
2022-07-28T00:10:00.809Z,17.38
2022-07-28T00:12:28.410Z,16.80
2022-07-28T00:14:55.532Z,15.43
2022-07-28T00:17:22.588Z,17.15
2022-07-28T00:19:50.901Z,16.73
2022-07-28T00:22:18.940Z,15.77
2022-07-28T00:24:46.096Z,18.50
2022-07-28T00:27:19.264Z,17.65
2022-07-28T00:29:51.002Z,15.52
2022-07-28T00:32:20.760Z,18.77
2022-07-28T00:34:48.341Z,22.58
2022-07-28T00:37:15.485Z,18.40
2022-07-28T00:39:43.382Z,21.15
2022-07-28T00:42:10.621Z,21.73
2022-07-28T00:44:42.003Z,16.30
2022-07-28T00:47:09.285Z,21.23
2022-07-28T00:49:36.396Z,21.75
2022-07-28T00:52:04.934Z,18.25
2022-07-28T00:54:33.508Z,20.08
2022-07-28T00:57:00.766Z,18.83
2022-07-28T00:59:27.767Z,22.75
2022-07-28T01:01:56.149Z,20.27
2022-07-28T01:04:24.140Z,18.27
2022-07-28T01:07:12.927Z,23.45
2022-07-28T01:09:42.583Z,18.75
2022-07-28T01:12:27.727Z,17.65
2022-07-28T01:15:11.881Z,22.50
2022-07-28T01:17:59.058Z,17.92
2022-07-28T01:20:32.115Z,24.65
2022-07-28T01:22:59.051Z,21.75
2022-07-28T01:26:04.316Z,20.17
2022-07-28T01:29:16.671Z,20.85
2022-07-28T01:31:48.841Z,22.08
2022-07-28T01:34:20.172Z,20.33
2022-07-28T01:36:53.704Z,22.70
2022-07-28T01:39:24.851Z,23.77
2022-07-28T01:41:54.668Z,22.42
2022-07-28T01:44:25.247Z,24.70
2022-07-28T01:46:54.839Z,21.05
2022-07-28T01:49:23.471Z,19.58
2022-07-28T01:51:53.252Z,19.65
2022-07-28T01:54:22.230Z,20.02
2022-07-28T01:56:51.862Z,20.65
2022-07-28T01:59:21.840Z,18.92
2022-07-28T02:01:51.089Z,21.70
2022-07-28T02:04:20.295Z,19.17
2022-07-28T02:06:48.801Z,26.65
2022-07-28T02:09:17.760Z,20.13
2022-07-28T02:11:47.025Z,18.45
2022-07-28T02:14:18.127Z,21.55
2022-07-28T02:16:49.134Z,21.08
2022-07-28T02:19:19.308Z,23.77
2022-07-28T02:21:50.236Z,22.00
2022-07-28T02:24:21.406Z,19.60
2022-07-28T02:27:01.029Z,25.17
2022-07-28T02:29:50.287Z,22.23
2022-07-28T02:32:36.909Z,22.13
2022-07-28T02:35:36.863Z,22.05
2022-07-28T02:38:12.669Z,22.90
2022-07-28T02:40:41.369Z,24.52
2022-07-28T02:43:13.379Z,26.17
2022-07-28T02:45:43.464Z,26.08
2022-07-28T02:48:17.593Z,28.30
2022-07-28T02:50:46.691Z,21.17
2022-07-28T02:53:16.379Z,27.77
2022-07-28T02:55:48.861Z,21.63
2022-07-28T02:58:21.631Z,22.08
2022-07-28T03:00:50.186Z,19.95
2022-07-28T03:03:21.322Z,27.05
2022-07-28T03:05:49.038Z,29.42
2022-07-28T03:08:19.349Z,21.85
2022-07-28T03:10:46.467Z,22.83
2022-07-28T03:13:13.793Z,28.30
2022-07-28T03:15:41.056Z,22.98
2022-07-28T03:18:08.363Z,26.65
2022-07-28T03:20:35.805Z,30.00
2022-07-28T03:23:02.866Z,25.00
2022-07-28T03:25:44.615Z,24.58
2022-07-28T03:28:19.541Z,31.25
2022-07-28T03:31:09.810Z,29.08
2022-07-28T03:33:37.288Z,29.27
2022-07-28T03:36:09.478Z,28.75
2022-07-28T03:38:45.808Z,23.25
2022-07-28T03:41:15.222Z,31.08
2022-07-28T03:43:43.304Z,28.13
2022-07-28T03:46:13.253Z,29.75
2022-07-28T03:48:40.904Z,31.10
2022-07-28T03:51:07.948Z,29.40
2022-07-28T03:53:35.230Z,26.02
2022-07-28T03:56:03.487Z,29.17
2022-07-28T03:58:31.076Z,27.77
2022-07-28T04:00:58.992Z,29.33
2022-07-28T04:03:43.374Z,33.13
2022-07-28T04:06:15.946Z,23.55
2022-07-28T04:08:44.280Z,27.85
2022-07-28T04:11:11.539Z,29.17
2022-07-28T04:13:38.702Z,25.38
2022-07-28T04:16:07.309Z,23.25
2022-07-28T04:18:35.201Z,30.75
2022-07-28T04:21:02.486Z,29.40
2022-07-28T04:23:29.596Z,29.00
2022-07-28T04:25:56.681Z,32.30
2022-07-28T04:28:24.322Z,31.48
2022-07-28T04:30:51.424Z,21.83
2022-07-28T04:33:19.655Z,31.92
2022-07-28T04:35:47.222Z,26.08
2022-07-28T04:38:15.171Z,30.48
2022-07-28T04:40:42.696Z,29.42
2022-07-28T04:43:10.533Z,28.10
2022-07-28T04:45:37.715Z,26.17
2022-07-28T04:48:05.557Z,19.63
2022-07-28T04:50:32.841Z,27.90
2022-07-28T04:53:00.302Z,25.13
2022-07-28T04:55:27.386Z,30.25
2022-07-28T04:57:54.397Z,22.92
2022-07-28T05:00:22.961Z,23.15
2022-07-28T05:02:51.460Z,25.00
2022-07-28T05:05:18.983Z,25.63
2022-07-28T05:07:46.208Z,25.13
2022-07-28T05:10:13.309Z,22.77
2022-07-28T05:12:40.453Z,21.48
2022-07-28T05:15:08.953Z,21.63
2022-07-28T05:17:37.269Z,20.27
2022-07-28T05:20:06.056Z,28.98
2022-07-28T05:22:53.892Z,20.48
2022-07-28T05:25:23.720Z,22.40
2022-07-28T05:27:52.654Z,19.48
2022-07-28T05:30:20.202Z,20.55
2022-07-28T05:32:49.138Z,19.85
2022-07-28T05:35:16.825Z,21.05
2022-07-28T05:37:44.161Z,23.80
2022-07-28T05:40:16.441Z,22.50
2022-07-28T05:42:44.209Z,18.33
2022-07-28T05:45:16.899Z,16.98
2022-07-28T05:47:47.398Z,23.25
2022-07-28T05:50:18.570Z,23.23
2022-07-28T05:52:47.566Z,17.58
2022-07-28T05:55:17.608Z,18.15
2022-07-28T05:57:44.808Z,15.70
2022-07-28T06:00:17.855Z,14.68
2022-07-28T06:02:45.918Z,17.45
2022-07-28T06:05:14.039Z,18.70
2022-07-28T06:07:43.110Z,16.05
2022-07-28T06:10:14.285Z,15.05
2022-07-28T06:12:49.487Z,27.58
2022-07-28T06:17:45.331Z,24.73
2022-07-28T06:20:13.398Z,16.15
2022-07-28T06:22:51.368Z,16.38
2022-07-28T06:25:21.270Z,14.35
2022-07-28T06:27:50.113Z,15.02
2022-07-28T06:30:17.949Z,15.80
2022-07-28T06:32:45.733Z,24.42
2022-07-28T06:35:16.434Z,18.15
2022-07-28T06:37:45.294Z,12.65
2022-07-28T06:40:13.676Z,20.05
2022-07-28T06:42:42.201Z,15.02
2022-07-28T06:45:20.937Z,20.98
2022-07-28T06:47:53.093Z,14.15
2022-07-28T06:50:25.244Z,13.38
2022-07-28T06:52:59.178Z,18.48
2022-07-28T06:55:33.775Z,15.80
2022-07-28T06:58:02.271Z,14.00
2022-07-28T07:00:29.455Z,12.80
2022-07-28T07:02:57.059Z,11.65
2022-07-28T07:05:24.309Z,15.15
2022-07-28T07:07:51.474Z,12.82
2022-07-28T07:10:18.463Z,14.00
2022-07-28T07:12:45.933Z,10.82
2022-07-28T07:15:12.969Z,14.63
2022-07-28T07:17:40.001Z,14.13
2022-07-28T07:20:08.134Z,13.32
2022-07-28T07:22:35.615Z,18.60
2022-07-28T07:25:10.457Z,12.50
2022-07-28T07:27:39.180Z,12.00
2022-07-28T07:30:07.892Z,13.07
2022-07-28T07:32:35.724Z,18.17
2022-07-28T07:35:03.173Z,11.20
2022-07-28T07:37:32.665Z,12.30
2022-07-28T07:40:05.033Z,13.75
2022-07-28T07:42:32.331Z,17.90
2022-07-28T07:44:59.591Z,11.73
2022-07-28T07:47:26.758Z,16.73
2022-07-28T07:49:53.830Z,12.10
2022-07-28T07:52:20.867Z,11.77
2022-07-28T07:54:47.904Z,12.00
2022-07-28T07:57:14.934Z,14.05
2022-07-28T07:59:42.069Z,12.32
2022-07-28T08:02:09.253Z,19.15
2022-07-28T08:04:38.300Z,14.50
2022-07-28T08:07:06.841Z,16.67
2022-07-28T08:09:34.661Z,12.20
2022-07-28T08:12:02.035Z,10.68
2022-07-28T08:14:29.489Z,9.80
2022-07-28T08:16:58.642Z,10.15
2022-07-28T08:19:25.984Z,9.88
2022-07-28T08:24:29.040Z,12.30
2022-07-28T08:27:00.570Z,10.85
2022-07-28T08:29:27.602Z,13.75
2022-07-28T08:31:54.691Z,9.70
2022-07-28T08:34:31.660Z,9.50
2022-07-28T08:37:02.527Z,10.13
2022-07-28T08:39:31.423Z,9.20
2022-07-28T08:42:49.026Z,18.38
2022-07-28T08:45:17.750Z,16.58
2022-07-28T08:48:07.361Z,9.98
2022-07-28T08:50:32.570Z,10.93
2022-07-28T08:53:00.689Z,14.18
2022-07-28T08:55:32.127Z,11.52
2022-07-28T08:58:00.637Z,17.02
2022-07-28T09:00:28.115Z,11.40
2022-07-28T09:02:56.047Z,8.52
2022-07-28T09:05:24.358Z,10.82
2022-07-28T09:07:54.815Z,11.05
2022-07-28T09:10:23.097Z,13.43
2022-07-28T09:12:50.306Z,14.32
2022-07-28T09:15:17.518Z,9.95
2022-07-28T09:17:44.522Z,9.73
2022-07-28T09:20:12.487Z,8.45
2022-07-28T09:22:58.521Z,9.88
2022-07-28T09:25:26.649Z,10.80
2022-07-28T09:27:54.851Z,12.60
2022-07-28T09:30:33.891Z,10.23
2022-07-28T09:33:40.935Z,10.85
2022-07-28T09:36:16.215Z,7.15
2022-07-28T09:38:43.601Z,16.65
2022-07-28T09:41:11.782Z,10.75
2022-07-28T09:43:44.598Z,11.23
2022-07-28T09:46:14.272Z,15.10
2022-07-28T09:48:51.150Z,11.95
2022-07-28T09:51:19.363Z,13.63
2022-07-28T09:53:47.562Z,12.60
2022-07-28T09:56:14.988Z,18.83
2022-07-28T09:58:55.298Z,14.88
2022-07-28T10:01:24.564Z,10.65
2022-07-28T10:03:55.953Z,8.68
2022-07-28T10:06:31.571Z,7.55
2022-07-28T10:09:03.424Z,9.85
2022-07-28T10:11:31.480Z,11.13
2022-07-28T10:14:03.193Z,10.60
2022-07-28T10:16:32.881Z,11.85
2022-07-28T10:19:03.132Z,10.02
2022-07-28T10:21:33.769Z,8.07
2022-07-28T10:24:07.525Z,8.57
2022-07-28T10:26:46.572Z,14.32
2022-07-28T10:29:16.712Z,7.25
2022-07-28T10:31:43.943Z,7.85
2022-07-28T10:34:20.472Z,7.28
2022-07-28T10:36:55.890Z,8.68
2022-07-28T10:39:26.053Z,7.80
2022-07-28T10:41:54.005Z,9.82
2022-07-28T10:44:21.916Z,12.27
2022-07-28T10:46:50.115Z,10.68
2022-07-28T10:49:17.587Z,10.63
2022-07-28T10:52:06.420Z,12.52
2022-07-28T10:54:43.030Z,8.13
2022-07-28T11:00:15.600Z,16.67
2022-07-28T11:02:52.608Z,12.85
2022-07-28T11:05:36.774Z,9.75
2022-07-28T11:08:26.862Z,8.75
2022-07-28T11:11:07.411Z,12.63
2022-07-28T11:13:41.176Z,12.65
2022-07-28T11:16:14.989Z,6.97
2022-07-28T11:19:04.598Z,10.90
2022-07-28T11:21:39.588Z,10.63
2022-07-28T11:24:10.689Z,9.80
2022-07-28T11:26:45.298Z,10.73
2022-07-28T11:29:12.355Z,13.93
2022-07-28T11:31:47.939Z,7.70
2022-07-28T11:34:25.336Z,7.40
2022-07-28T11:37:14.945Z,10.93
2022-07-28T11:39:45.424Z,18.63
2022-07-28T11:42:35.951Z,18.05
2022-07-28T11:45:39.302Z,14.98
2022-07-28T11:48:18.379Z,12.10
2022-07-28T11:51:03.423Z,16.45
2022-07-28T11:53:41.640Z,9.93
2022-07-28T11:56:11.428Z,11.30
2022-07-28T11:58:40.805Z,14.98
2022-07-28T12:01:19.915Z,12.48
2022-07-28T12:03:54.847Z,11.88
2022-07-28T12:06:28.774Z,16.55
2022-07-28T12:09:04.892Z,9.70
2022-07-28T12:11:34.242Z,11.87
2022-07-28T12:14:04.300Z,12.05
2022-07-28T12:16:32.737Z,10.45
2022-07-28T12:19:01.657Z,17.05
2022-07-28T12:21:50.020Z,10.52
2022-07-28T12:24:21.107Z,12.90
2022-07-28T12:26:50.291Z,9.15
2022-07-28T12:29:19.604Z,10.00
2022-07-28T12:31:59.284Z,11.63
2022-07-28T12:34:29.328Z,10.60
2022-07-28T12:37:04.347Z,13.70
2022-07-28T12:39:34.444Z,11.13
2022-07-28T12:42:06.909Z,11.65
2022-07-28T12:44:35.758Z,10.95
2022-07-28T12:47:03.981Z,11.73
2022-07-28T12:49:30.980Z,8.35
2022-07-28T12:51:59.302Z,7.68
2022-07-28T12:54:37.142Z,6.70
2022-07-28T12:57:04.686Z,6.82
2022-07-28T12:59:36.349Z,7.43
2022-07-28T13:02:04.121Z,8.60
2022-07-28T13:04:44.813Z,7.70
2022-07-28T13:07:21.808Z,8.45
2022-07-28T13:10:00.908Z,10.07
2022-07-28T13:12:31.174Z,23.27
2022-07-28T13:15:01.103Z,47.78
2022-07-28T13:17:31.874Z,16.95
2022-07-28T13:20:07.300Z,17.45
2022-07-28T13:22:34.374Z,33.38
2022-07-28T13:25:01.826Z,15.85
2022-07-28T13:27:32.861Z,12.77
2022-07-28T13:30:00.116Z,14.63
2022-07-28T13:32:27.559Z,17.30
2022-07-28T13:34:55.427Z,12.68
2022-07-28T13:37:23.382Z,11.60
2022-07-28T13:39:54.544Z,10.45
2022-07-28T13:42:23.810Z,9.07
2022-07-28T13:44:50.945Z,11.73
2022-07-28T13:47:18.529Z,14.02
2022-07-28T13:49:45.647Z,19.10
2022-07-28T13:52:26.356Z,11.98
2022-07-28T13:55:04.170Z,16.92
2022-07-28T13:57:32.017Z,19.42
2022-07-28T14:00:07.609Z,14.73
2022-07-28T14:02:36.080Z,18.63
2022-07-28T14:05:05.287Z,14.35
2022-07-28T14:07:32.274Z,20.02
2022-07-28T14:09:59.542Z,15.55
2022-07-28T14:12:26.554Z,18.23
2022-07-28T14:14:53.726Z,15.07
2022-07-28T14:20:10.862Z,22.98
2022-07-28T14:22:37.862Z,24.85
2022-07-28T14:25:05.307Z,19.35
2022-07-28T14:27:32.764Z,23.10
2022-07-28T14:29:59.828Z,18.13
2022-07-28T14:32:32.029Z,21.02
2022-07-28T14:35:02.619Z,23.02
2022-07-28T14:37:41.146Z,19.83
2022-07-28T14:40:17.661Z,25.17
2022-07-28T14:42:45.177Z,21.40
2022-07-28T14:45:12.742Z,19.83
2022-07-28T14:47:43.996Z,18.92
2022-07-28T14:50:12.462Z,16.98
2022-07-28T14:52:39.691Z,16.35
2022-07-28T14:55:07.003Z,13.23
2022-07-28T14:57:48.451Z,16.70
2022-07-28T15:00:22.853Z,13.93
2022-07-28T15:02:51.659Z,15.98
2022-07-28T15:05:19.502Z,12.57
2022-07-28T15:07:49.444Z,10.13
2022-07-28T15:10:16.638Z,11.90
2022-07-28T15:12:44.277Z,10.85
2022-07-28T15:15:13.089Z,11.65
2022-07-28T15:17:40.425Z,9.10
2022-07-28T15:20:08.771Z,12.60
2022-07-28T15:22:35.991Z,14.70
2022-07-28T15:25:04.260Z,11.02
2022-07-28T15:27:33.696Z,12.80
2022-07-28T15:30:02.974Z,16.75
2022-07-28T15:32:32.049Z,10.88
2022-07-28T15:34:59.514Z,13.10
2022-07-28T15:37:28.073Z,10.23
2022-07-28T15:39:55.307Z,9.77
2022-07-28T15:42:22.408Z,14.90
2022-07-28T15:44:49.508Z,9.82
2022-07-28T15:47:16.740Z,11.60
2022-07-28T15:49:43.826Z,10.20
2022-07-28T15:52:10.945Z,12.27
2022-07-28T15:54:37.923Z,9.40
2022-07-28T15:57:05.006Z,9.90
2022-07-28T15:59:48.828Z,9.90
2022-07-28T16:02:18.012Z,10.98
2022-07-28T16:04:53.249Z,9.38
2022-07-28T16:07:23.127Z,10.82
2022-07-28T16:09:51.763Z,13.02
2022-07-28T16:12:19.199Z,10.63
2022-07-28T16:14:46.453Z,10.02
2022-07-28T16:17:13.986Z,7.60
2022-07-28T16:19:50.204Z,9.85
2022-07-28T16:22:21.449Z,11.45
2022-07-28T16:24:49.443Z,10.35
2022-07-28T16:27:16.745Z,8.43
2022-07-28T16:29:44.848Z,8.63
2022-07-28T16:32:12.082Z,12.00
2022-07-28T16:34:39.409Z,10.55
2022-07-28T16:37:06.672Z,10.07
2022-07-28T16:39:34.692Z,9.00
2022-07-28T16:42:02.868Z,10.98
2022-07-28T16:44:30.487Z,12.88
2022-07-28T16:46:58.262Z,12.38
2022-07-28T16:49:25.518Z,14.30
2022-07-28T16:51:52.961Z,10.48
2022-07-28T16:54:20.630Z,12.68
2022-07-28T16:56:48.055Z,13.52
2022-07-28T16:59:15.143Z,11.15
2022-07-28T17:01:45.809Z,12.80
2022-07-28T17:04:14.655Z,11.77
2022-07-28T17:06:42.279Z,11.20
2022-07-28T17:09:09.810Z,10.60
2022-07-28T17:11:37.137Z,13.32
2022-07-28T17:14:04.818Z,13.88
2022-07-28T17:16:31.992Z,14.07
2022-07-28T17:18:59.691Z,8.30
2022-07-28T17:21:27.014Z,8.68
2022-07-28T17:23:54.136Z,9.30
2022-07-28T17:29:09.257Z,7.40
2022-07-28T17:31:37.580Z,11.10
2022-07-28T17:34:04.925Z,7.28
2022-07-28T17:36:35.334Z,7.95
2022-07-28T17:39:02.644Z,6.03
2022-07-28T17:41:30.526Z,4.70
2022-07-28T17:43:57.795Z,7.13
2022-07-28T17:46:26.714Z,5.03
2022-07-28T17:48:54.130Z,3.55
2022-07-28T17:51:21.338Z,4.90
2022-07-28T17:53:50.177Z,3.20
2022-07-28T17:56:17.598Z,4.53
2022-07-28T17:58:45.668Z,3.08
2022-07-28T18:01:15.345Z,4.55
2022-07-28T18:03:57.998Z,5.22
2022-07-28T18:06:34.130Z,4.22
2022-07-28T18:09:08.179Z,6.60
2022-07-28T18:11:56.939Z,8.75
2022-07-28T18:14:28.034Z,7.10
2022-07-28T18:16:55.693Z,6.72
2022-07-28T18:19:22.751Z,9.68
2022-07-28T18:21:50.012Z,10.05
2022-07-28T18:24:18.442Z,5.95
2022-07-28T18:26:45.845Z,5.03
2022-07-28T18:29:12.841Z,5.75
2022-07-28T18:31:45.944Z,5.88
2022-07-28T18:34:14.810Z,7.40
2022-07-28T18:36:42.114Z,6.10
2022-07-28T18:39:09.288Z,8.23
2022-07-28T18:41:47.077Z,3.88
2022-07-28T18:44:18.943Z,3.10
2022-07-28T18:46:47.125Z,4.03
2022-07-28T18:49:14.787Z,2.78
2022-07-28T18:51:44.023Z,5.32
2022-07-28T18:54:12.659Z,3.75
2022-07-28T18:56:39.893Z,4.60
2022-07-28T18:59:06.882Z,7.05
2022-07-28T19:01:33.981Z,4.55
2022-07-28T19:04:01.243Z,5.25
2022-07-28T19:06:29.432Z,4.10
2022-07-28T19:08:56.822Z,4.90
2022-07-28T19:11:23.780Z,3.75
2022-07-28T19:13:50.770Z,4.30
2022-07-28T19:16:19.574Z,2.38
2022-07-28T19:18:46.674Z,7.40
2022-07-28T19:21:13.754Z,5.32
2022-07-28T19:23:40.864Z,4.18
2022-07-28T19:26:07.911Z,3.60
2022-07-28T19:28:34.868Z,6.80
2022-07-28T19:31:10.364Z,4.38
2022-07-28T19:33:42.883Z,4.68
2022-07-28T19:36:13.813Z,2.50
2022-07-28T19:38:41.453Z,3.17
2022-07-28T19:41:09.520Z,4.90
2022-07-28T19:43:36.561Z,3.25
2022-07-28T19:46:03.893Z,6.97
2022-07-28T19:48:31.100Z,3.60
2022-07-28T19:50:58.070Z,2.78
2022-07-28T19:53:31.631Z,3.35
2022-07-28T19:55:59.858Z,4.00
2022-07-28T19:58:27.747Z,5.53
2022-07-28T20:00:56.411Z,3.65
2022-07-28T20:04:03.549Z,7.00
2022-07-28T20:06:11.999Z,4.32
2022-07-28T20:08:39.467Z,4.55
2022-07-28T20:11:11.024Z,6.90
2022-07-28T20:13:38.441Z,3.45
2022-07-28T20:16:05.961Z,3.95
2022-07-28T20:18:38.041Z,2.50
2022-07-28T20:21:06.330Z,3.15
2022-07-28T20:23:33.754Z,2.28
2022-07-28T20:26:00.798Z,3.40
2022-07-28T20:28:27.892Z,6.47
2022-07-28T20:30:54.981Z,21.90
2022-07-28T20:33:22.071Z,5.43
2022-07-28T20:35:50.123Z,4.15
2022-07-28T20:38:23.449Z,4.55
2022-07-28T20:40:51.198Z,1.95
2022-07-28T20:43:18.502Z,4.65
2022-07-28T20:45:49.300Z,3.83
2022-07-28T20:48:16.326Z,3.63
2022-07-28T20:50:43.380Z,6.05
2022-07-28T20:53:10.708Z,7.05
2022-07-28T20:55:38.238Z,4.22
2022-07-28T20:58:06.604Z,3.35
2022-07-28T21:00:34.062Z,3.88
2022-07-28T21:03:01.194Z,7.32
2022-07-28T21:05:35.943Z,4.65
2022-07-28T21:08:06.548Z,7.18
2022-07-28T21:10:36.537Z,4.38
2022-07-28T21:13:03.788Z,1.63
2022-07-28T21:15:30.882Z,4.90
2022-07-28T21:17:58.249Z,5.65
2022-07-28T21:20:25.713Z,2.95
2022-07-28T21:22:52.782Z,4.60
2022-07-28T21:25:22.939Z,3.65
2022-07-28T21:28:08.453Z,3.90
2022-07-28T21:30:35.525Z,6.95
2022-07-28T21:33:02.664Z,2.35
2022-07-28T21:35:30.038Z,2.03
2022-07-28T21:37:57.085Z,5.65
2022-07-28T21:40:24.307Z,1.73
2022-07-28T21:42:52.284Z,3.55
2022-07-28T21:45:19.527Z,4.47
2022-07-28T21:47:47.118Z,7.32
2022-07-28T21:50:14.678Z,3.72
2022-07-28T21:52:41.852Z,1.63
2022-07-28T21:55:10.107Z,2.78
2022-07-28T21:57:38.262Z,4.95
2022-07-28T22:00:08.253Z,7.10
2022-07-28T22:02:35.203Z,3.42
2022-07-28T22:05:02.339Z,6.05
2022-07-28T22:07:30.466Z,2.90
2022-07-28T22:09:57.645Z,6.07
2022-07-28T22:12:25.647Z,3.15
2022-07-28T22:14:52.617Z,4.65
2022-07-28T22:17:19.660Z,2.67
2022-07-28T22:19:46.852Z,2.92
2022-07-28T22:22:13.908Z,8.13
2022-07-28T22:24:40.940Z,8.38
2022-07-28T22:27:08.010Z,2.92
2022-07-28T22:29:35.068Z,2.80
2022-07-28T22:32:02.222Z,5.30
2022-07-28T22:34:29.435Z,1.80
2022-07-28T22:36:56.457Z,1.20
2022-07-28T22:39:23.613Z,1.95
2022-07-28T22:41:50.686Z,3.35
2022-07-28T22:44:17.900Z,3.55
2022-07-28T22:46:45.306Z,4.22
2022-07-28T22:49:12.336Z,2.10
2022-07-28T22:51:39.504Z,2.65
2022-07-28T22:54:13.862Z,4.13
2022-07-28T22:56:41.355Z,4.68
2022-07-28T22:59:08.900Z,3.47
2022-07-28T23:01:36.855Z,1.50
2022-07-28T23:04:05.167Z,2.67
2022-07-28T23:06:34.661Z,3.63
2022-07-28T23:09:01.667Z,1.45
2022-07-28T23:11:28.784Z,3.40
2022-07-28T23:13:55.872Z,2.40
2022-07-28T23:16:23.355Z,1.50
2022-07-28T23:18:50.359Z,2.25
2022-07-28T23:21:17.446Z,3.65
2022-07-28T23:23:44.555Z,2.03
2022-07-28T23:26:11.800Z,3.13
2022-07-28T23:28:38.935Z,2.70
2022-07-28T23:31:06.057Z,3.15
2022-07-28T23:33:56.764Z,2.30
2022-07-28T23:36:26.741Z,2.40
2022-07-28T23:38:58.850Z,4.22
2022-07-28T23:41:26.986Z,2.22
2022-07-28T23:43:54.315Z,2.10
2022-07-28T23:46:21.520Z,3.40
2022-07-28T23:48:49.379Z,1.83
2022-07-28T23:51:16.373Z,6.60
2022-07-28T23:53:45.099Z,1.70
2022-07-28T23:56:15.170Z,5.47
2022-07-28T23:58:42.202Z,9.35
